createdAt,value
2018-12-16T00:00:57.921Z,12.53
2018-12-16T00:03:32.223Z,12.93
2018-12-16T00:06:06.624Z,12.23
2018-12-16T00:08:40.957Z,13.33
2018-12-16T00:11:15.218Z,12.20
2018-12-16T00:13:49.588Z,14.70
2018-12-16T00:16:24.018Z,12.30
2018-12-16T00:18:58.296Z,13.77
2018-12-16T00:21:32.786Z,13.10
2018-12-16T00:24:07.082Z,17.90
2018-12-16T00:26:52.921Z,14.77
2018-12-16T00:29:27.801Z,12.47
2018-12-16T00:32:02.160Z,16.87
2018-12-16T00:34:36.557Z,12.23
2018-12-16T00:37:10.997Z,13.20
2018-12-16T00:39:45.268Z,14.70
2018-12-16T00:42:19.727Z,13.70
2018-12-16T00:44:54.135Z,13.77
2018-12-16T00:47:28.380Z,13.03
2018-12-16T00:50:02.797Z,14.70
2018-12-16T00:52:37.064Z,17.03
2018-12-16T00:55:11.508Z,12.47
2018-12-16T00:57:45.888Z,16.10
2018-12-16T01:00:20.200Z,14.03
2018-12-16T01:02:54.532Z,12.40
2018-12-16T01:05:28.879Z,14.90
2018-12-16T01:08:03.328Z,13.10
2018-12-16T01:10:37.797Z,14.53
2018-12-16T01:13:12.112Z,15.03
2018-12-16T01:15:46.421Z,12.47
2018-12-16T01:18:20.749Z,15.00
2018-12-16T01:20:54.977Z,13.73
2018-12-16T01:23:29.324Z,15.80
2018-12-16T01:26:03.856Z,14.17
2018-12-16T01:28:38.184Z,13.40
2018-12-16T01:31:12.394Z,15.53
2018-12-16T01:33:46.809Z,13.40
2018-12-16T01:36:21.093Z,16.00
2018-12-16T01:38:55.475Z,17.87
2018-12-16T01:41:29.803Z,16.93
2018-12-16T01:44:04.369Z,15.27
2018-12-16T01:46:38.789Z,15.70
2018-12-16T01:49:13.140Z,17.67
2018-12-16T01:51:47.422Z,16.97
2018-12-16T01:54:21.868Z,16.10
2018-12-16T01:56:56.281Z,15.57
2018-12-16T01:59:30.486Z,13.87
2018-12-16T02:02:04.859Z,17.13
2018-12-16T02:04:39.240Z,17.70
2018-12-16T02:07:13.589Z,16.03
2018-12-16T02:09:48.034Z,16.97
2018-12-16T02:12:22.357Z,15.77
2018-12-16T02:14:56.837Z,18.47
2018-12-16T02:17:31.330Z,14.40
2018-12-16T02:20:05.888Z,17.77
2018-12-16T02:22:40.080Z,15.80
2018-12-16T02:25:14.532Z,18.47
2018-12-16T02:27:48.849Z,16.57
2018-12-16T02:30:28.273Z,16.03
2018-12-16T02:33:02.533Z,17.43
2018-12-16T02:35:36.859Z,16.43
2018-12-16T02:38:11.208Z,15.50
2018-12-16T02:40:45.604Z,16.10
2018-12-16T02:43:19.965Z,13.53
2018-12-16T02:45:54.193Z,15.70
2018-12-16T02:48:28.547Z,15.47
2018-12-16T02:51:02.956Z,16.20
2018-12-16T02:53:37.305Z,16.47
2018-12-16T02:56:11.602Z,13.67
2018-12-16T02:58:45.965Z,15.70
2018-12-16T03:01:20.488Z,14.70
2018-12-16T03:03:54.713Z,16.83
2018-12-16T03:06:29.222Z,15.87
2018-12-16T03:09:05.464Z,15.67
2018-12-16T03:11:39.706Z,14.53
2018-12-16T03:14:13.986Z,14.47
2018-12-16T03:16:48.297Z,14.80
2018-12-16T03:19:22.722Z,15.00
2018-12-16T03:21:57.105Z,12.50
2018-12-16T03:24:31.281Z,15.73
2018-12-16T03:27:05.758Z,15.57
2018-12-16T03:29:40.237Z,14.47
2018-12-16T03:32:14.695Z,15.20
2018-12-16T03:34:48.953Z,16.63
2018-12-16T03:37:23.173Z,17.40
2018-12-16T03:39:57.540Z,14.43
2018-12-16T03:42:31.877Z,16.90
2018-12-16T03:45:06.341Z,14.83
2018-12-16T03:47:40.613Z,16.30
2018-12-16T03:50:14.906Z,14.07
2018-12-16T03:52:49.224Z,14.43
2018-12-16T03:55:23.773Z,15.33
2018-12-16T03:57:58.065Z,14.30
2018-12-16T04:00:32.416Z,13.03
2018-12-16T04:03:06.741Z,15.13
2018-12-16T04:05:41.021Z,13.50
2018-12-16T04:08:15.364Z,13.80
2018-12-16T04:10:49.877Z,15.80
2018-12-16T04:13:24.268Z,16.63
2018-12-16T04:15:58.587Z,14.37
2018-12-16T04:18:33.032Z,15.27
2018-12-16T04:21:07.318Z,14.33
2018-12-16T04:23:41.842Z,14.57
2018-12-16T04:26:16.169Z,14.70
2018-12-16T04:28:50.539Z,14.47
2018-12-16T04:31:24.884Z,16.70
2018-12-16T04:33:59.272Z,11.50
2018-12-16T04:36:33.512Z,11.57
2018-12-16T04:39:07.782Z,13.43
2018-12-16T04:41:42.272Z,12.83
2018-12-16T04:44:16.481Z,13.03
2018-12-16T04:46:50.724Z,13.63
2018-12-16T04:49:24.927Z,14.17
2018-12-16T04:51:59.224Z,13.27
2018-12-16T04:54:33.510Z,12.13
2018-12-16T04:57:07.858Z,11.77
2018-12-16T04:59:42.275Z,13.97
2018-12-16T05:02:16.780Z,13.47
2018-12-16T05:04:51.076Z,13.77
2018-12-16T05:07:25.441Z,11.57
2018-12-16T05:10:10.002Z,12.60
2018-12-16T05:12:44.416Z,13.75
2018-12-16T05:15:18.617Z,11.97
2018-12-16T05:17:53.230Z,12.47
2018-12-16T05:20:27.574Z,12.00
2018-12-16T05:23:02.251Z,12.80
2018-12-16T05:25:36.634Z,11.17
2018-12-16T05:28:10.945Z,10.60
2018-12-16T05:30:45.401Z,11.10
2018-12-16T05:33:19.807Z,12.43
2018-12-16T05:35:54.186Z,14.63
2018-12-16T05:38:28.588Z,11.47
2018-12-16T05:41:02.840Z,10.67
2018-12-16T05:43:37.192Z,9.90
2018-12-16T05:46:11.493Z,11.57
2018-12-16T05:48:45.773Z,9.93
2018-12-16T05:51:20.047Z,12.97
2018-12-16T05:53:54.385Z,10.60
2018-12-16T05:56:28.696Z,13.10
2018-12-16T05:59:03.241Z,10.07
2018-12-16T06:01:37.417Z,9.47
2018-12-16T06:04:11.788Z,10.17
2018-12-16T06:06:46.188Z,10.30
2018-12-16T06:09:20.424Z,9.90
2018-12-16T06:11:54.792Z,8.77
2018-12-16T06:14:29.413Z,9.57
2018-12-16T06:17:03.913Z,12.13
2018-12-16T06:19:38.204Z,9.40
2018-12-16T06:22:12.516Z,10.50
2018-12-16T06:24:46.892Z,8.93
2018-12-16T06:27:21.220Z,9.10
2018-12-16T06:29:55.972Z,8.93
2018-12-16T06:32:30.312Z,8.97
2018-12-16T06:35:04.666Z,9.60
2018-12-16T06:37:38.856Z,9.87
2018-12-16T06:40:13.436Z,8.13
2018-12-16T06:42:47.680Z,9.43
2018-12-16T06:45:22.102Z,8.00
2018-12-16T06:47:56.530Z,11.33
2018-12-16T06:50:30.800Z,8.17
2018-12-16T06:53:05.289Z,10.33
2018-12-16T06:55:43.230Z,9.90
2018-12-16T06:58:15.924Z,9.47
2018-12-16T07:00:50.393Z,9.30
2018-12-16T07:03:24.817Z,8.80
2018-12-16T07:05:59.005Z,10.60
2018-12-16T07:08:33.331Z,11.47
2018-12-16T07:11:07.791Z,7.73
2018-12-16T07:13:42.040Z,10.90
2018-12-16T07:16:16.217Z,11.07
2018-12-16T07:18:50.415Z,9.00
2018-12-16T07:21:24.896Z,8.70
2018-12-16T07:23:59.233Z,11.47
2018-12-16T07:26:33.641Z,7.60
2018-12-16T07:29:08.158Z,9.00
2018-12-16T07:31:42.481Z,9.23
2018-12-16T07:34:16.779Z,9.13
2018-12-16T07:36:51.088Z,10.67
2018-12-16T07:39:25.397Z,10.47
2018-12-16T07:41:59.849Z,9.80
2018-12-16T07:44:34.309Z,11.57
2018-12-16T07:47:08.721Z,10.10
2018-12-16T07:49:43.138Z,9.30
2018-12-16T07:52:17.480Z,11.07
2018-12-16T07:54:52.000Z,12.73
2018-12-16T07:57:26.289Z,10.77
2018-12-16T08:00:00.617Z,10.97
2018-12-16T08:02:34.961Z,9.90
2018-12-16T08:05:09.389Z,9.20
2018-12-16T08:07:43.645Z,10.20
2018-12-16T08:10:18.078Z,10.43
2018-12-16T08:12:52.514Z,9.93
2018-12-16T08:15:26.888Z,9.70
2018-12-16T08:18:01.236Z,11.33
2018-12-16T08:20:35.522Z,9.50
2018-12-16T08:23:09.923Z,9.60
2018-12-16T08:25:44.193Z,8.67
2018-12-16T08:28:18.609Z,10.63
2018-12-16T08:30:52.904Z,11.30
2018-12-16T08:33:27.310Z,9.83
2018-12-16T08:36:01.757Z,11.57
2018-12-16T08:38:36.040Z,11.87
2018-12-16T08:41:10.416Z,9.93
2018-12-16T08:43:44.800Z,11.33
2018-12-16T08:46:19.151Z,10.53
2018-12-16T08:48:53.313Z,15.87
2018-12-16T08:51:27.642Z,8.63
2018-12-16T08:54:01.964Z,11.07
2018-12-16T08:56:36.354Z,11.60
2018-12-16T08:59:10.593Z,9.43
2018-12-16T09:01:44.963Z,12.23
2018-12-16T09:04:19.308Z,10.00
2018-12-16T09:06:53.665Z,12.23
2018-12-16T09:09:28.436Z,11.43
2018-12-16T09:12:02.930Z,11.70
2018-12-16T09:14:37.126Z,11.93
2018-12-16T09:17:11.444Z,11.07
2018-12-16T09:19:45.907Z,11.00
2018-12-16T09:22:20.177Z,11.33
2018-12-16T09:24:54.539Z,10.53
2018-12-16T09:27:28.962Z,9.77
2018-12-16T09:30:03.932Z,10.90
2018-12-16T09:32:38.181Z,11.37
2018-12-16T09:35:12.456Z,12.67
2018-12-16T09:37:46.764Z,11.10
2018-12-16T09:40:20.974Z,11.53
2018-12-16T09:42:55.291Z,11.90
2018-12-16T09:45:31.341Z,13.30
2018-12-16T09:48:05.600Z,12.47
2018-12-16T09:50:39.952Z,12.80
2018-12-16T09:53:14.353Z,11.93
2018-12-16T09:55:48.717Z,15.10
2018-12-16T09:58:22.996Z,13.40
2018-12-16T10:00:57.245Z,10.40
2018-12-16T10:03:31.428Z,13.10
2018-12-16T10:06:05.869Z,12.53
2018-12-16T10:08:40.211Z,14.57
2018-12-16T10:11:14.541Z,13.20
2018-12-16T10:13:48.816Z,12.33
2018-12-16T10:16:23.194Z,12.87
2018-12-16T10:18:57.345Z,12.40
2018-12-16T10:21:31.727Z,13.13
2018-12-16T10:24:06.081Z,12.77
2018-12-16T10:26:40.824Z,13.53
2018-12-16T10:29:15.166Z,12.77
2018-12-16T10:31:49.361Z,14.20
2018-12-16T10:34:23.816Z,14.23
2018-12-16T10:36:58.116Z,12.47
2018-12-16T10:39:32.499Z,13.50
2018-12-16T10:42:06.888Z,16.63
2018-12-16T10:44:41.293Z,16.73
2018-12-16T10:47:15.761Z,14.27
2018-12-16T10:49:50.033Z,14.67
2018-12-16T10:52:24.324Z,15.20
2018-12-16T10:54:58.871Z,15.87
2018-12-16T10:57:33.548Z,14.50
2018-12-16T11:00:12.453Z,15.97
2018-12-16T11:02:46.808Z,15.50
2018-12-16T11:05:21.281Z,17.57
2018-12-16T11:07:55.537Z,16.30
2018-12-16T11:10:30.088Z,13.33
2018-12-16T11:13:05.081Z,20.02
2018-12-16T11:15:39.325Z,16.83
2018-12-16T11:18:13.632Z,15.47
2018-12-16T11:20:47.957Z,12.03
2018-12-16T11:23:22.152Z,14.40
2018-12-16T11:25:57.374Z,16.20
2018-12-16T11:28:31.565Z,14.83
2018-12-16T11:31:06.001Z,18.93
2018-12-16T11:33:40.311Z,15.93
2018-12-16T11:36:14.657Z,15.43
2018-12-16T11:38:48.958Z,15.90
2018-12-16T11:41:23.388Z,16.50
2018-12-16T11:43:57.677Z,15.30
2018-12-16T11:46:32.024Z,16.63
2018-12-16T11:49:06.281Z,19.77
2018-12-16T11:51:40.972Z,15.07
2018-12-16T11:54:15.215Z,16.40
2018-12-16T11:56:49.478Z,14.57
2018-12-16T11:59:23.848Z,16.67
2018-12-16T12:01:58.212Z,14.83
2018-12-16T12:04:32.580Z,15.83
2018-12-16T12:07:06.944Z,16.37
2018-12-16T12:09:41.324Z,17.43
2018-12-16T12:12:15.710Z,17.13
2018-12-16T12:14:49.988Z,15.30
2018-12-16T12:17:24.366Z,16.20
2018-12-16T12:19:58.602Z,16.07
2018-12-16T12:22:33.062Z,15.83
2018-12-16T12:25:07.390Z,19.70
2018-12-16T12:27:41.732Z,15.60
2018-12-16T12:30:16.132Z,15.00
2018-12-16T12:32:50.518Z,15.10
2018-12-16T12:35:25.004Z,15.57
2018-12-16T12:37:59.344Z,16.17
2018-12-16T12:40:33.805Z,16.40
2018-12-16T12:43:08.296Z,16.87
2018-12-16T12:45:42.640Z,16.43
2018-12-16T12:48:17.021Z,17.07
2018-12-16T12:50:51.381Z,16.03
2018-12-16T12:53:25.876Z,16.03
2018-12-16T12:56:00.196Z,15.23
2018-12-16T12:58:34.507Z,15.33
2018-12-16T13:01:08.765Z,16.17
2018-12-16T13:03:43.076Z,17.50
2018-12-16T13:06:17.246Z,16.27
2018-12-16T13:08:51.612Z,17.33
2018-12-16T13:11:25.881Z,18.43
2018-12-16T13:14:00.184Z,21.90
2018-12-16T13:16:34.429Z,17.30
2018-12-16T13:19:08.810Z,18.23
2018-12-16T13:21:43.134Z,20.27
2018-12-16T13:24:17.589Z,17.70
2018-12-16T13:26:51.948Z,16.57
2018-12-16T13:29:26.352Z,15.63
2018-12-16T13:32:00.724Z,18.97
2018-12-16T13:34:35.199Z,20.70
2018-12-16T13:37:09.461Z,17.27
2018-12-16T13:39:43.715Z,16.23
2018-12-16T13:42:18.073Z,16.60
2018-12-16T13:44:52.447Z,18.27
2018-12-16T13:47:26.660Z,17.03
2018-12-16T13:50:01.052Z,15.90
2018-12-16T13:52:35.333Z,15.50
2018-12-16T13:55:09.816Z,16.03
2018-12-16T13:57:44.590Z,16.53
2018-12-16T14:12:02.989Z,18.33
2018-12-16T14:14:37.349Z,16.63
2018-12-16T14:17:27.639Z,16.20
2018-12-16T14:20:01.875Z,18.27
2018-12-16T14:22:36.156Z,17.10
2018-12-16T14:25:10.871Z,15.00
2018-12-16T14:27:45.150Z,17.70
2018-12-16T14:30:19.646Z,22.03
2018-12-16T14:32:57.048Z,19.30
2018-12-16T14:35:31.305Z,14.97
2018-12-16T14:38:06.144Z,19.23
2018-12-16T14:40:40.355Z,20.30
2018-12-16T14:43:14.773Z,19.13
2018-12-16T14:45:49.035Z,18.27
2018-12-16T14:48:23.370Z,16.63
2018-12-16T14:50:57.848Z,16.80
2018-12-16T14:53:32.028Z,17.03
2018-12-16T14:56:06.600Z,18.13
2018-12-16T14:58:41.154Z,18.83
2018-12-16T15:01:15.515Z,19.17
2018-12-16T15:03:49.872Z,19.30
2018-12-16T15:06:24.153Z,17.87
2018-12-16T15:08:58.443Z,19.60
2018-12-16T15:11:32.869Z,15.73
2018-12-16T15:14:07.292Z,15.73
2018-12-16T15:16:41.605Z,18.03
2018-12-16T15:19:15.892Z,18.97
2018-12-16T15:21:50.320Z,18.97
2018-12-16T15:24:24.495Z,18.83
2018-12-16T15:26:58.780Z,17.73
2018-12-16T15:29:33.128Z,18.13
2018-12-16T15:32:07.455Z,20.03
2018-12-16T15:34:41.766Z,18.63
2018-12-16T15:37:16.141Z,20.33
2018-12-16T15:39:50.577Z,18.67
2018-12-16T15:42:24.882Z,17.60
2018-12-16T15:44:59.222Z,18.90
2018-12-16T15:47:33.584Z,27.27
2018-12-16T15:50:08.908Z,18.13
2018-12-16T15:52:43.164Z,18.07
2018-12-16T15:55:17.494Z,17.07
2018-12-16T15:57:51.820Z,17.57
2018-12-16T16:00:26.172Z,17.77
2018-12-16T16:03:00.480Z,19.50
2018-12-16T16:05:35.731Z,16.30
2018-12-16T16:08:16.298Z,17.27
2018-12-16T16:10:46.498Z,16.87
2018-12-16T16:13:20.961Z,21.63
2018-12-16T16:15:55.314Z,20.03
2018-12-16T16:18:29.641Z,19.80
2018-12-16T16:21:04.149Z,17.90
2018-12-16T16:23:38.444Z,17.70
2018-12-16T16:26:16.233Z,20.10
2018-12-16T16:28:49.164Z,17.43
2018-12-16T16:31:23.472Z,21.60
2018-12-16T16:33:58.100Z,24.97
2018-12-16T16:36:32.591Z,24.13
2018-12-16T16:39:06.954Z,27.70
2018-12-16T16:41:41.372Z,20.87
2018-12-16T16:44:15.592Z,20.07
2018-12-16T16:46:49.905Z,22.25
2018-12-16T16:49:24.228Z,21.27
2018-12-16T16:51:58.620Z,20.10
2018-12-16T16:54:32.896Z,19.07
2018-12-16T16:57:07.291Z,20.27
2018-12-16T16:59:41.996Z,16.90
2018-12-16T17:02:16.434Z,18.40
2018-12-16T17:04:50.703Z,18.27
2018-12-16T17:07:24.963Z,18.83
2018-12-16T17:09:59.491Z,20.43
2018-12-16T17:12:33.798Z,18.13
2018-12-16T17:15:08.657Z,18.47
2018-12-16T17:17:42.972Z,16.63
2018-12-16T17:20:17.271Z,20.20
2018-12-16T17:22:52.925Z,17.53
2018-12-16T17:25:27.538Z,21.37
2018-12-16T17:28:01.957Z,20.77
2018-12-16T17:30:36.464Z,19.87
2018-12-16T17:33:11.051Z,18.40
2018-12-16T17:35:47.599Z,20.17
2018-12-16T17:38:22.052Z,22.20
2018-12-16T17:40:57.354Z,20.57
2018-12-16T17:43:31.752Z,20.77
2018-12-16T17:46:07.492Z,20.10
2018-12-16T17:48:41.881Z,18.50
2018-12-16T17:51:16.141Z,20.10
2018-12-16T17:53:50.396Z,22.17
2018-12-16T17:56:24.672Z,20.13
2018-12-16T17:58:59.006Z,18.70
2018-12-16T18:01:33.449Z,19.47
2018-12-16T18:04:10.121Z,22.53
2018-12-16T18:06:44.484Z,19.00
2018-12-16T18:09:18.864Z,21.30
2018-12-16T18:11:53.149Z,20.13
2018-12-16T18:14:27.541Z,19.47
2018-12-16T18:17:02.925Z,23.92
2018-12-16T18:19:37.125Z,19.53
2018-12-16T18:22:14.164Z,21.03
2018-12-16T18:24:47.806Z,19.53
2018-12-16T18:27:22.381Z,20.17
2018-12-16T18:29:56.807Z,19.33
2018-12-16T18:32:31.013Z,19.43
2018-12-16T18:35:06.057Z,19.40
2018-12-16T18:37:40.719Z,25.70
2018-12-16T18:40:15.094Z,22.50
2018-12-16T18:42:49.296Z,20.57
2018-12-16T18:45:23.644Z,20.60
2018-12-16T18:47:57.796Z,20.17
2018-12-16T18:50:32.178Z,19.97
2018-12-16T18:53:06.431Z,22.07
2018-12-16T18:55:40.720Z,21.40
2018-12-16T18:58:14.998Z,22.27
2018-12-16T19:00:49.280Z,20.90
2018-12-16T19:03:23.657Z,19.63
2018-12-16T19:05:58.032Z,23.77
2018-12-16T19:08:32.261Z,24.07
2018-12-16T19:11:06.380Z,24.57
2018-12-16T19:13:40.694Z,26.83
2018-12-16T19:16:15.156Z,23.07
2018-12-16T19:18:49.820Z,25.90
2018-12-16T19:21:24.380Z,25.03
2018-12-16T19:23:58.609Z,25.60
2018-12-16T19:26:32.772Z,29.27
2018-12-16T19:29:06.965Z,28.23
2018-12-16T19:31:41.305Z,28.03
2018-12-16T19:34:15.473Z,26.07
2018-12-16T19:36:49.743Z,25.40
2018-12-16T19:39:24.141Z,28.27
2018-12-16T19:41:58.482Z,25.33
2018-12-16T19:44:32.733Z,32.10
2018-12-16T19:47:07.078Z,28.10
2018-12-16T19:49:41.448Z,25.03
2018-12-16T19:52:15.816Z,29.10
2018-12-16T19:54:50.900Z,29.93
2018-12-16T19:57:25.461Z,27.00
2018-12-16T19:59:59.609Z,26.43
2018-12-16T20:02:34.007Z,28.00
2018-12-16T20:05:12.984Z,32.10
2018-12-16T20:07:47.203Z,25.20
2018-12-16T20:10:21.765Z,29.23
2018-12-16T20:12:56.153Z,29.20
2018-12-16T20:15:30.473Z,27.67
2018-12-16T20:18:04.876Z,27.37
2018-12-16T20:20:39.197Z,27.17
2018-12-16T20:23:13.480Z,29.07
2018-12-16T20:25:47.729Z,28.30
2018-12-16T20:28:22.081Z,27.93
2018-12-16T20:30:56.304Z,27.77
2018-12-16T20:33:30.724Z,27.20
2018-12-16T20:36:05.211Z,24.97
2018-12-16T20:38:39.425Z,29.33
2018-12-16T20:41:13.729Z,24.13
2018-12-16T20:43:47.909Z,28.33
2018-12-16T20:46:22.261Z,24.83
2018-12-16T20:48:56.730Z,30.20
2018-12-16T20:51:31.213Z,28.00
2018-12-16T20:54:05.397Z,30.53
2018-12-16T20:56:39.752Z,31.50
2018-12-16T20:59:14.162Z,26.13
2018-12-16T21:01:48.607Z,23.87
2018-12-16T21:04:22.908Z,26.13
2018-12-16T21:06:57.190Z,23.73
2018-12-16T21:09:31.493Z,28.23
2018-12-16T21:12:10.137Z,24.10
2018-12-16T21:14:50.065Z,25.03
2018-12-16T21:17:29.616Z,32.17
2018-12-16T21:20:04.203Z,31.37
2018-12-16T21:22:38.452Z,26.77
2018-12-16T21:25:12.988Z,23.70
2018-12-16T21:27:47.261Z,26.83
2018-12-16T21:30:21.628Z,26.17
2018-12-16T21:32:56.033Z,26.87
2018-12-16T21:38:30.224Z,22.83
2018-12-16T21:41:04.612Z,25.97
2018-12-16T21:43:38.777Z,24.40
2018-12-16T21:46:13.006Z,27.57
2018-12-16T21:48:47.199Z,28.47
2018-12-16T21:51:21.519Z,29.90
2018-12-16T21:53:55.822Z,27.80
2018-12-16T21:56:30.056Z,31.23
2018-12-16T21:59:04.657Z,32.73
2018-12-16T22:01:38.994Z,31.83
2018-12-16T22:04:13.399Z,35.43
2018-12-16T22:06:47.760Z,39.40
2018-12-16T22:09:22.259Z,36.60
2018-12-16T22:11:56.684Z,36.40
2018-12-16T22:14:30.873Z,37.33
2018-12-16T22:17:05.424Z,33.13
2018-12-16T22:19:39.791Z,33.17
2018-12-16T22:22:14.100Z,36.63
2018-12-16T22:24:48.479Z,33.83
2018-12-16T22:27:22.681Z,37.10
2018-12-16T22:29:57.005Z,37.67
2018-12-16T22:32:31.317Z,36.43
2018-12-16T22:35:05.741Z,36.13
2018-12-16T22:37:40.005Z,40.33
2018-12-16T22:40:14.667Z,42.63
2018-12-16T22:42:48.917Z,37.57
2018-12-16T22:45:23.100Z,37.30
2018-12-16T22:47:57.465Z,40.90
2018-12-16T22:50:31.813Z,37.53
2018-12-16T22:53:06.118Z,38.67
2018-12-16T22:55:40.630Z,37.83
2018-12-16T22:58:14.960Z,38.67
2018-12-16T23:00:55.536Z,38.60
2018-12-16T23:03:29.705Z,38.40
2018-12-16T23:06:04.184Z,36.73
2018-12-16T23:08:38.645Z,39.23
2018-12-16T23:11:12.884Z,39.43
2018-12-16T23:13:47.400Z,41.50
2018-12-16T23:16:21.817Z,37.20
2018-12-16T23:18:55.972Z,40.20
2018-12-16T23:21:30.357Z,39.13
2018-12-16T23:24:04.676Z,40.97
2018-12-16T23:26:39.061Z,38.20
2018-12-16T23:29:13.472Z,37.67
2018-12-16T23:31:47.676Z,46.63
2018-12-16T23:34:22.220Z,45.40
2018-12-16T23:36:56.621Z,45.27
2018-12-16T23:39:30.889Z,48.50
2018-12-16T23:42:05.244Z,42.33
2018-12-16T23:44:39.542Z,47.23
2018-12-16T23:47:13.743Z,44.37
2018-12-16T23:49:48.100Z,44.93
2018-12-16T23:52:22.340Z,47.20
2018-12-16T23:54:56.776Z,40.70
2018-12-16T23:57:31.205Z,47.57
